sensor_id;sensor_type;location;lat;lon;timestamp;pressure;altitude;pressure_sealevel;temperature;humidity
59787;BME280;45672;51.612;5.536;2023-09-30T00:01:11;102303.56;;;12.95;100.00
59787;BME280;45672;51.612;5.536;2023-09-30T00:03:36;102311.03;;;13.01;100.00
59787;BME280;45672;51.612;5.536;2023-09-30T00:06:02;102309.75;;;12.96;100.00
59787;BME280;45672;51.612;5.536;2023-09-30T00:08:29;102312.28;;;12.97;100.00
59787;BME280;45672;51.612;5.536;2023-09-30T00:10:54;102305.38;;;12.94;100.00
59787;BME280;45672;51.612;5.536;2023-09-30T00:13:20;102305.84;;;13.00;100.00
59787;BME280;45672;51.612;5.536;2023-09-30T00:15:45;102302.34;;;12.99;100.00
59787;BME280;45672;51.612;5.536;2023-09-30T00:18:11;102320.16;;;12.99;100.00
59787;BME280;45672;51.612;5.536;2023-09-30T00:20:36;102319.47;;;12.97;100.00
59787;BME280;45672;51.612;5.536;2023-09-30T00:23:01;102318.88;;;12.93;100.00
59787;BME280;45672;51.612;5.536;2023-09-30T00:25:27;102321.28;;;12.96;100.00
59787;BME280;45672;51.612;5.536;2023-09-30T00:27:53;102317.22;;;12.92;100.00
59787;BME280;45672;51.612;5.536;2023-09-30T00:30:18;102317.22;;;12.92;100.00
59787;BME280;45672;51.612;5.536;2023-09-30T00:32:44;102319.75;;;12.93;100.00
59787;BME280;45672;51.612;5.536;2023-09-30T00:35:09;102321.56;;;12.93;100.00
59787;BME280;45672;51.612;5.536;2023-09-30T00:37:38;102322.16;;;12.97;100.00
59787;BME280;45672;51.612;5.536;2023-09-30T00:40:04;102326.75;;;12.94;100.00
59787;BME280;45672;51.612;5.536;2023-09-30T00:42:30;102331.13;;;12.96;100.00
59787;BME280;45672;51.612;5.536;2023-09-30T00:44:55;102339.00;;;12.97;100.00
59787;BME280;45672;51.612;5.536;2023-09-30T00:47:20;102336.47;;;12.96;100.00
59787;BME280;45672;51.612;5.536;2023-09-30T00:49:46;102342.53;;;12.98;100.00
59787;BME280;45672;51.612;5.536;2023-09-30T00:52:11;102337.03;;;12.89;100.00
59787;BME280;45672;51.612;5.536;2023-09-30T00:54:38;102333.63;;;12.87;100.00
59787;BME280;45672;51.612;5.536;2023-09-30T00:57:05;102324.19;;;12.83;100.00
59787;BME280;45672;51.612;5.536;2023-09-30T00:59:31;102314.72;;;12.79;100.00
59787;BME280;45672;51.612;5.536;2023-09-30T01:01:58;102323.34;;;12.83;100.00
59787;BME280;45672;51.612;5.536;2023-09-30T01:04:26;102320.06;;;12.79;100.00
59787;BME280;45672;51.612;5.536;2023-09-30T01:06:52;102327.84;;;12.82;100.00
59787;BME280;45672;51.612;5.536;2023-09-30T01:09:17;102329.09;;;12.78;100.00
59787;BME280;45672;51.612;5.536;2023-09-30T01:11:42;102346.69;;;12.81;100.00
59787;BME280;45672;51.612;5.536;2023-09-30T01:14:30;102342.31;;;12.80;100.00
59787;BME280;45672;51.612;5.536;2023-09-30T01:16:56;102341.44;;;12.79;100.00
59787;BME280;45672;51.612;5.536;2023-09-30T01:19:23;102346.09;;;12.77;100.00
59787;BME280;45672;51.612;5.536;2023-09-30T01:21:54;102331.31;;;12.73;100.00
59787;BME280;45672;51.612;5.536;2023-09-30T01:24:21;102356.19;;;12.73;100.00
59787;BME280;45672;51.612;5.536;2023-09-30T01:26:47;102370.66;;;12.71;100.00
59787;BME280;45672;51.612;5.536;2023-09-30T01:29:13;102374.31;;;12.70;100.00
59787;BME280;45672;51.612;5.536;2023-09-30T01:31:38;102375.28;;;12.69;100.00
59787;BME280;45672;51.612;5.536;2023-09-30T01:34:04;102383.16;;;12.70;100.00
59787;BME280;45672;51.612;5.536;2023-09-30T01:36:30;102371.03;;;12.66;100.00
59787;BME280;45672;51.612;5.536;2023-09-30T01:38:55;102357.94;;;12.63;100.00
59787;BME280;45672;51.612;5.536;2023-09-30T01:41:21;102355.81;;;12.57;100.00
59787;BME280;45672;51.612;5.536;2023-09-30T01:43:48;102362.47;;;12.63;100.00
59787;BME280;45672;51.612;5.536;2023-09-30T01:46:13;102360.63;;;12.63;100.00
59787;BME280;45672;51.612;5.536;2023-09-30T01:48:39;102363.03;;;12.66;100.00
59787;BME280;45672;51.612;5.536;2023-09-30T01:51:04;102350.53;;;12.67;100.00
59787;BME280;45672;51.612;5.536;2023-09-30T01:53:30;102348.44;;;12.70;100.00
59787;BME280;45672;51.612;5.536;2023-09-30T01:55:55;102340.56;;;12.69;100.00
59787;BME280;45672;51.612;5.536;2023-09-30T01:58:20;102336.31;;;12.66;100.00
59787;BME280;45672;51.612;5.536;2023-09-30T02:00:46;102334.19;;;12.60;100.00
59787;BME280;45672;51.612;5.536;2023-09-30T02:03:11;102331.78;;;12.57;100.00
59787;BME280;45672;51.612;5.536;2023-09-30T02:05:38;102341.38;;;12.59;100.00
59787;BME280;45672;51.612;5.536;2023-09-30T02:08:04;102338.50;;;12.51;100.00
59787;BME280;45672;51.612;5.536;2023-09-30T02:10:31;102339.34;;;12.52;100.00
59787;BME280;45672;51.612;5.536;2023-09-30T02:12:58;102335.81;;;12.51;100.00
59787;BME280;45672;51.612;5.536;2023-09-30T02:15:25;102346.63;;;12.50;100.00
59787;BME280;45672;51.612;5.536;2023-09-30T02:17:51;102363.09;;;12.55;100.00
59787;BME280;45672;51.612;5.536;2023-09-30T02:20:17;102357.75;;;12.55;100.00
59787;BME280;45672;51.612;5.536;2023-09-30T02:22:45;102371.44;;;12.62;100.00
59787;BME280;45672;51.612;5.536;2023-09-30T02:25:11;102372.16;;;12.64;100.00
59787;BME280;45672;51.612;5.536;2023-09-30T02:27:40;102363.41;;;12.62;100.00
59787;BME280;45672;51.612;5.536;2023-09-30T02:30:07;102365.13;;;12.63;100.00
59787;BME280;45672;51.612;5.536;2023-09-30T02:32:33;102362.72;;;12.59;100.00
59787;BME280;45672;51.612;5.536;2023-09-30T02:34:58;102348.91;;;12.54;100.00
59787;BME280;45672;51.612;5.536;2023-09-30T02:37:24;102350.75;;;12.54;100.00
59787;BME280;45672;51.612;5.536;2023-09-30T02:39:50;102349.44;;;12.48;100.00
59787;BME280;45672;51.612;5.536;2023-09-30T02:42:15;102355.03;;;12.45;100.00
59787;BME280;45672;51.612;5.536;2023-09-30T02:44:41;102351.91;;;12.40;100.00
59787;BME280;45672;51.612;5.536;2023-09-30T02:47:06;102348.50;;;12.38;100.00
59787;BME280;45672;51.612;5.536;2023-09-30T02:49:34;102351.31;;;12.36;100.00
59787;BME280;45672;51.612;5.536;2023-09-30T02:52:00;102356.06;;;12.33;100.00
59787;BME280;45672;51.612;5.536;2023-09-30T02:54:26;102342.88;;;12.31;100.00
59787;BME280;45672;51.612;5.536;2023-09-30T02:56:51;102343.69;;;12.32;100.00
59787;BME280;45672;51.612;5.536;2023-09-30T02:59:17;102338.50;;;12.30;100.00
59787;BME280;45672;51.612;5.536;2023-09-30T03:01:43;102341.03;;;12.32;100.00
59787;BME280;45672;51.612;5.536;2023-09-30T03:04:09;102322.88;;;12.26;100.00
59787;BME280;45672;51.612;5.536;2023-09-30T03:06:37;102337.78;;;12.28;100.00
59787;BME280;45672;51.612;5.536;2023-09-30T03:09:04;102336.34;;;12.24;100.00
59787;BME280;45672;51.612;5.536;2023-09-30T03:11:30;102340.81;;;12.23;100.00
59787;BME280;45672;51.612;5.536;2023-09-30T03:13:56;102347.16;;;12.22;100.00
59787;BME280;45672;51.612;5.536;2023-09-30T03:16:22;102356.69;;;12.25;100.00
59787;BME280;45672;51.612;5.536;2023-09-30T03:18:49;102341.09;;;12.20;100.00
59787;BME280;45672;51.612;5.536;2023-09-30T03:21:14;102350.25;;;12.28;100.00
59787;BME280;45672;51.612;5.536;2023-09-30T03:23:40;102341.56;;;12.26;100.00
59787;BME280;45672;51.612;5.536;2023-09-30T03:26:05;102349.88;;;12.32;100.00
59787;BME280;45672;51.612;5.536;2023-09-30T03:28:35;102341.50;;;12.37;100.00
59787;BME280;45672;51.612;5.536;2023-09-30T03:31:00;102327.88;;;12.40;100.00
59787;BME280;45672;51.612;5.536;2023-09-30T03:33:26;102328.34;;;12.45;100.00
59787;BME280;45672;51.612;5.536;2023-09-30T03:35:51;102331.84;;;12.46;100.00
59787;BME280;45672;51.612;5.536;2023-09-30T03:38:17;102338.03;;;12.46;100.00
59787;BME280;45672;51.612;5.536;2023-09-30T03:40:45;102335.63;;;12.43;100.00
59787;BME280;45672;51.612;5.536;2023-09-30T03:43:13;102336.47;;;12.44;100.00
59787;BME280;45672;51.612;5.536;2023-09-30T03:45:39;102337.59;;;12.41;100.00
59787;BME280;45672;51.612;5.536;2023-09-30T03:48:06;102335.16;;;12.38;100.00
59787;BME280;45672;51.612;5.536;2023-09-30T03:50:32;102343.91;;;12.40;100.00
59787;BME280;45672;51.612;5.536;2023-09-30T03:53:05;102341.38;;;12.38;100.00
59787;BME280;45672;51.612;5.536;2023-09-30T03:55:32;102337.72;;;12.39;100.00
59787;BME280;45672;51.612;5.536;2023-09-30T03:57:59;102336.72;;;12.40;100.00
59787;BME280;45672;51.612;5.536;2023-09-30T04:00:25;102332.63;;;12.36;100.00
59787;BME280;45672;51.612;5.536;2023-09-30T04:02:51;102331.66;;;12.37;100.00
59787;BME280;45672;51.612;5.536;2023-09-30T04:05:20;102337.13;;;12.36;100.00
59787;BME280;45672;51.612;5.536;2023-09-30T04:07:51;102330.22;;;12.33;100.00
59787;BME280;45672;51.612;5.536;2023-09-30T04:10:17;102331.31;;;12.31;100.00
59787;BME280;45672;51.612;5.536;2023-09-30T04:12:43;102340.31;;;12.30;100.00
59787;BME280;45672;51.612;5.536;2023-09-30T04:15:08;102342.25;;;12.28;100.00
59787;BME280;45672;51.612;5.536;2023-09-30T04:17:37;102337.72;;;12.18;100.00
59787;BME280;45672;51.612;5.536;2023-09-30T04:20:05;102330.69;;;12.17;100.00
59787;BME280;45672;51.612;5.536;2023-09-30T04:22:33;102332.16;;;12.10;100.00
59787;BME280;45672;51.612;5.536;2023-09-30T04:25:00;102314.25;;;12.01;100.00
59787;BME280;45672;51.612;5.536;2023-09-30T04:27:25;102336.75;;;12.08;100.00
59787;BME280;45672;51.612;5.536;2023-09-30T04:29:52;102343.81;;;12.09;100.00
59787;BME280;45672;51.612;5.536;2023-09-30T04:32:18;102331.69;;;12.05;100.00
59787;BME280;45672;51.612;5.536;2023-09-30T04:34:45;102344.31;;;12.03;100.00
59787;BME280;45672;51.612;5.536;2023-09-30T04:37:12;102345.78;;;12.07;100.00
59787;BME280;45672;51.612;5.536;2023-09-30T04:39:38;102336.06;;;12.06;100.00
59787;BME280;45672;51.612;5.536;2023-09-30T04:42:04;102332.22;;;11.99;100.00
59787;BME280;45672;51.612;5.536;2023-09-30T04:44:30;102346.03;;;12.04;100.00
59787;BME280;45672;51.612;5.536;2023-09-30T04:46:57;102354.13;;;12.02;100.00
59787;BME280;45672;51.612;5.536;2023-09-30T04:49:22;102365.41;;;12.06;100.00
59787;BME280;45672;51.612;5.536;2023-09-30T04:51:48;102357.06;;;11.99;100.00
59787;BME280;45672;51.612;5.536;2023-09-30T04:54:14;102368.47;;;12.01;100.00
59787;BME280;45672;51.612;5.536;2023-09-30T04:56:39;102365.06;;;11.99;100.00
59787;BME280;45672;51.612;5.536;2023-09-30T04:59:05;102367.59;;;12.01;100.00
59787;BME280;45672;51.612;5.536;2023-09-30T05:01:30;102363.38;;;11.98;100.00
59787;BME280;45672;51.612;5.536;2023-09-30T05:03:56;102369.31;;;11.90;100.00
59787;BME280;45672;51.612;5.536;2023-09-30T05:06:22;102372.72;;;11.93;100.00
59787;BME280;45672;51.612;5.536;2023-09-30T05:08:47;102365.06;;;11.88;100.00
59787;BME280;45672;51.612;5.536;2023-09-30T05:11:15;102373.06;;;11.88;100.00
59787;BME280;45672;51.612;5.536;2023-09-30T05:13:40;102377.09;;;11.94;100.00
59787;BME280;45672;51.612;5.536;2023-09-30T05:16:06;102373.94;;;11.88;100.00
59787;BME280;45672;51.612;5.536;2023-09-30T05:18:34;102380.94;;;11.89;100.00
59787;BME280;45672;51.612;5.536;2023-09-30T05:21:00;102371.53;;;11.85;100.00
59787;BME280;45672;51.612;5.536;2023-09-30T05:23:26;102368.13;;;11.83;100.00
59787;BME280;45672;51.612;5.536;2023-09-30T05:25:51;102374.19;;;11.85;100.00
59787;BME280;45672;51.612;5.536;2023-09-30T05:28:16;102375.16;;;11.84;100.00
59787;BME280;45672;51.612;5.536;2023-09-30T05:30:42;102380.88;;;11.80;100.00
59787;BME280;45672;51.612;5.536;2023-09-30T05:33:08;102380.75;;;11.81;100.00
59787;BME280;45672;51.612;5.536;2023-09-30T05:35:38;102380.63;;;11.83;100.00
59787;BME280;45672;51.612;5.536;2023-09-30T05:38:07;102375.16;;;11.84;100.00
59787;BME280;45672;51.612;5.536;2023-09-30T05:40:32;102382.28;;;11.84;100.00
59787;BME280;45672;51.612;5.536;2023-09-30T05:42:58;102387.41;;;11.87;100.00
59787;BME280;45672;51.612;5.536;2023-09-30T05:45:23;102391.88;;;11.86;100.00
59787;BME280;45672;51.612;5.536;2023-09-30T05:47:49;102396.38;;;11.86;100.00
59787;BME280;45672;51.612;5.536;2023-09-30T05:50:17;102385.56;;;11.87;100.00
59787;BME280;45672;51.612;5.536;2023-09-30T05:52:43;102389.94;;;11.88;100.00
59787;BME280;45672;51.612;5.536;2023-09-30T05:55:10;102396.50;;;11.96;100.00
59787;BME280;45672;51.612;5.536;2023-09-30T05:57:36;102394.28;;;12.01;100.00
59787;BME280;45672;51.612;5.536;2023-09-30T06:00:02;102396.31;;;12.09;100.00
59787;BME280;45672;51.612;5.536;2023-09-30T06:02:45;102400.88;;;12.18;100.00
59787;BME280;45672;51.612;5.536;2023-09-30T06:05:11;102403.91;;;12.24;100.00
59787;BME280;45672;51.612;5.536;2023-09-30T06:07:37;102396.94;;;12.33;100.00
59787;BME280;45672;51.612;5.536;2023-09-30T06:10:02;102402.75;;;12.38;100.00
59787;BME280;45672;51.612;5.536;2023-09-30T06:12:28;102387.31;;;12.42;100.00
59787;BME280;45672;51.612;5.536;2023-09-30T06:14:54;102382.56;;;12.46;100.00
59787;BME280;45672;51.612;5.536;2023-09-30T06:17:19;102378.81;;;12.48;100.00
59787;BME280;45672;51.612;5.536;2023-09-30T06:19:47;102385.44;;;12.54;100.00
59787;BME280;45672;51.612;5.536;2023-09-30T06:22:14;102391.69;;;12.64;100.00
59787;BME280;45672;51.612;5.536;2023-09-30T06:24:39;102405.94;;;12.74;100.00
59787;BME280;45672;51.612;5.536;2023-09-30T06:27:05;102387.31;;;12.84;100.00
59787;BME280;45672;51.612;5.536;2023-09-30T06:29:30;102387.50;;;12.92;100.00
59787;BME280;45672;51.612;5.536;2023-09-30T06:31:56;102381.19;;;12.93;100.00
59787;BME280;45672;51.612;5.536;2023-09-30T06:34:21;102378.94;;;12.99;100.00
59787;BME280;45672;51.612;5.536;2023-09-30T06:36:46;102386.44;;;13.05;100.00
59787;BME280;45672;51.612;5.536;2023-09-30T06:39:12;102397.97;;;13.05;100.00
59787;BME280;45672;51.612;5.536;2023-09-30T06:41:37;102399.53;;;13.08;100.00
59787;BME280;45672;51.612;5.536;2023-09-30T06:44:04;102403.78;;;13.10;100.00
59787;BME280;45672;51.612;5.536;2023-09-30T06:46:29;102395.03;;;13.08;100.00
59787;BME280;45672;51.612;5.536;2023-09-30T06:48:55;102401.81;;;13.13;100.00
59787;BME280;45672;51.612;5.536;2023-09-30T06:51:20;102397.69;;;13.08;100.00
59787;BME280;45672;51.612;5.536;2023-09-30T06:53:46;102408.13;;;13.11;100.00
59787;BME280;45672;51.612;5.536;2023-09-30T06:56:11;102413.59;;;13.10;100.00
59787;BME280;45672;51.612;5.536;2023-09-30T06:58:38;102425.59;;;13.16;100.00
59787;BME280;45672;51.612;5.536;2023-09-30T07:01:03;102430.53;;;13.20;100.00
59787;BME280;45672;51.612;5.536;2023-09-30T07:03:28;102431.13;;;13.24;100.00
59787;BME280;45672;51.612;5.536;2023-09-30T07:05:55;102447.09;;;13.35;100.00
59787;BME280;45672;51.612;5.536;2023-09-30T07:08:22;102445.16;;;13.47;100.00
59787;BME280;45672;51.612;5.536;2023-09-30T07:10:47;102437.34;;;13.65;100.00
59787;BME280;45672;51.612;5.536;2023-09-30T07:13:18;102447.44;;;14.02;100.00
59787;BME280;45672;51.612;5.536;2023-09-30T07:15:43;102443.53;;;14.26;100.00
59787;BME280;45672;51.612;5.536;2023-09-30T07:18:09;102445.78;;;14.79;100.00
59787;BME280;45672;51.612;5.536;2023-09-30T07:20:34;102436.69;;;15.47;100.00
59787;BME280;45672;51.612;5.536;2023-09-30T07:23:01;102442.19;;;16.55;100.00
59787;BME280;45672;51.612;5.536;2023-09-30T07:25:27;102443.78;;;17.45;100.00
59787;BME280;45672;51.612;5.536;2023-09-30T07:27:52;102462.34;;;17.91;100.00
59787;BME280;45672;51.612;5.536;2023-09-30T07:30:18;102481.97;;;18.75;100.00
59787;BME280;45672;51.612;5.536;2023-09-30T07:32:44;102491.22;;;19.70;94.71
59787;BME280;45672;51.612;5.536;2023-09-30T07:35:11;102504.97;;;20.46;91.09
59787;BME280;45672;51.612;5.536;2023-09-30T07:37:37;102504.34;;;21.21;85.51
59787;BME280;45672;51.612;5.536;2023-09-30T07:40:03;102506.47;;;22.00;82.34
59787;BME280;45672;51.612;5.536;2023-09-30T07:42:28;102521.84;;;22.72;75.81
59787;BME280;45672;51.612;5.536;2023-09-30T07:44:55;102517.88;;;23.25;73.70
59787;BME280;45672;51.612;5.536;2023-09-30T07:47:20;102520.75;;;23.93;68.47
59787;BME280;45672;51.612;5.536;2023-09-30T07:49:46;102521.91;;;24.33;66.25
59787;BME280;45672;51.612;5.536;2023-09-30T07:52:11;102514.97;;;24.10;65.07
59787;BME280;45672;51.612;5.536;2023-09-30T07:54:37;102511.84;;;24.06;64.36
59787;BME280;45672;51.612;5.536;2023-09-30T07:57:02;102511.28;;;24.38;62.04
59787;BME280;45672;51.612;5.536;2023-09-30T07:59:28;102511.31;;;23.41;63.59
59787;BME280;45672;51.612;5.536;2023-09-30T08:01:53;102498.69;;;22.12;70.32
59787;BME280;45672;51.612;5.536;2023-09-30T08:04:19;102495.59;;;21.04;74.30
59787;BME280;45672;51.612;5.536;2023-09-30T08:06:44;102502.28;;;20.23;80.18
59787;BME280;45672;51.612;5.536;2023-09-30T08:09:12;102500.81;;;21.50;77.51
59787;BME280;45672;51.612;5.536;2023-09-30T08:11:38;102506.75;;;23.13;70.54
59787;BME280;45672;51.612;5.536;2023-09-30T08:14:04;102504.78;;;24.46;64.84
59787;BME280;45672;51.612;5.536;2023-09-30T08:16:33;102507.28;;;25.34;60.67
59787;BME280;45672;51.612;5.536;2023-09-30T08:18:58;102497.28;;;25.73;56.17
59787;BME280;45672;51.612;5.536;2023-09-30T08:21:23;102499.03;;;25.99;54.02
59787;BME280;45672;51.612;5.536;2023-09-30T08:23:49;102505.94;;;25.63;54.37
59787;BME280;45672;51.612;5.536;2023-09-30T08:26:14;102495.94;;;25.89;56.01
59787;BME280;45672;51.612;5.536;2023-09-30T08:28:39;102492.91;;;26.75;53.86
59787;BME280;45672;51.612;5.536;2023-09-30T08:31:05;102502.63;;;27.70;51.39
59787;BME280;45672;51.612;5.536;2023-09-30T08:33:32;102493.22;;;27.96;48.29
59787;BME280;45672;51.612;5.536;2023-09-30T08:36:06;102492.19;;;28.40;49.48
59787;BME280;45672;51.612;5.536;2023-09-30T08:38:36;102484.09;;;28.33;45.43
59787;BME280;45672;51.612;5.536;2023-09-30T08:41:03;102498.56;;;28.64;43.89
59787;BME280;45672;51.612;5.536;2023-09-30T08:43:29;102495.81;;;28.99;44.49
59787;BME280;45672;51.612;5.536;2023-09-30T08:45:57;102481.78;;;28.72;43.07
59787;BME280;45672;51.612;5.536;2023-09-30T08:48:23;102493.06;;;27.91;44.31
59787;BME280;45672;51.612;5.536;2023-09-30T08:50:53;102490.81;;;27.88;44.88
59787;BME280;45672;51.612;5.536;2023-09-30T08:53:19;102483.28;;;28.44;43.79
59787;BME280;45672;51.612;5.536;2023-09-30T08:55:45;102481.84;;;28.42;43.10
59787;BME280;45672;51.612;5.536;2023-09-30T08:58:12;102469.13;;;28.95;43.53
59787;BME280;45672;51.612;5.536;2023-09-30T09:00:40;102489.34;;;28.46;42.04
59787;BME280;45672;51.612;5.536;2023-09-30T09:03:07;102479.69;;;28.44;42.47
59787;BME280;45672;51.612;5.536;2023-09-30T09:05:32;102481.31;;;28.87;42.00
59787;BME280;45672;51.612;5.536;2023-09-30T09:07:57;102496.88;;;29.22;41.51
59787;BME280;45672;51.612;5.536;2023-09-30T09:10:23;102498.88;;;29.79;39.59
59787;BME280;45672;51.612;5.536;2023-09-30T09:12:56;102500.34;;;30.11;40.60
59787;BME280;45672;51.612;5.536;2023-09-30T09:15:26;102517.91;;;29.98;39.93
59787;BME280;45672;51.612;5.536;2023-09-30T09:17:52;102514.72;;;30.01;38.75
59787;BME280;45672;51.612;5.536;2023-09-30T09:20:19;102516.44;;;30.70;38.28
59787;BME280;45672;51.612;5.536;2023-09-30T09:22:47;102518.91;;;31.44;36.53
59787;BME280;45672;51.612;5.536;2023-09-30T09:25:13;102518.78;;;31.78;36.07
59787;BME280;45672;51.612;5.536;2023-09-30T09:27:38;102529.72;;;31.95;35.12
59787;BME280;45672;51.612;5.536;2023-09-30T09:33:04;102532.88;;;31.60;35.46
59787;BME280;45672;51.612;5.536;2023-09-30T09:35:34;102538.75;;;31.07;35.15
59787;BME280;45672;51.612;5.536;2023-09-30T09:38:07;102552.81;;;30.60;35.24
59787;BME280;45672;51.612;5.536;2023-09-30T09:40:35;102554.19;;;30.00;35.40
59787;BME280;45672;51.612;5.536;2023-09-30T09:43:01;102546.25;;;29.74;36.27
59787;BME280;45672;51.612;5.536;2023-09-30T09:45:30;102552.19;;;30.24;36.19
59787;BME280;45672;51.612;5.536;2023-09-30T09:47:58;102543.88;;;30.36;35.15
59787;BME280;45672;51.612;5.536;2023-09-30T09:50:24;102554.06;;;30.06;35.71
59787;BME280;45672;51.612;5.536;2023-09-30T09:52:51;102546.09;;;29.93;36.60
59787;BME280;45672;51.612;5.536;2023-09-30T09:55:17;102545.00;;;28.28;38.87
59787;BME280;45672;51.612;5.536;2023-09-30T09:57:44;102544.09;;;27.05;42.17
59787;BME280;45672;51.612;5.536;2023-09-30T10:00:16;102543.75;;;25.98;44.74
59787;BME280;45672;51.612;5.536;2023-09-30T10:02:44;102547.53;;;25.12;46.81
59787;BME280;45672;51.612;5.536;2023-09-30T10:05:11;102542.28;;;24.70;47.91
59787;BME280;45672;51.612;5.536;2023-09-30T10:07:42;102536.97;;;24.29;48.95
59787;BME280;45672;51.612;5.536;2023-09-30T10:10:14;102550.06;;;24.05;51.06
59787;BME280;45672;51.612;5.536;2023-09-30T10:12:41;102547.00;;;23.73;51.99
59787;BME280;45672;51.612;5.536;2023-09-30T10:18:08;102554.72;;;23.34;54.13
59787;BME280;45672;51.612;5.536;2023-09-30T10:20:39;102549.78;;;23.16;56.60
59787;BME280;45672;51.612;5.536;2023-09-30T10:23:25;102557.25;;;23.36;55.64
59787;BME280;45672;51.612;5.536;2023-09-30T10:28:40;102540.59;;;23.46;55.58
59787;BME280;45672;51.612;5.536;2023-09-30T10:31:17;102532.66;;;22.66;56.11
59787;BME280;45672;51.612;5.536;2023-09-30T10:36:30;102505.66;;;21.84;60.62
59787;BME280;45672;51.612;5.536;2023-09-30T10:38:57;102498.31;;;21.78;61.22
59787;BME280;45672;51.612;5.536;2023-09-30T10:46:47;102501.34;;;21.54;62.37
59787;BME280;45672;51.612;5.536;2023-09-30T10:49:17;102492.72;;;21.65;63.11
59787;BME280;45672;51.612;5.536;2023-09-30T10:51:43;102502.31;;;21.82;61.21
59787;BME280;45672;51.612;5.536;2023-09-30T10:54:09;102492.97;;;21.85;63.08
59787;BME280;45672;51.612;5.536;2023-09-30T10:56:34;102489.97;;;21.95;61.63
59787;BME280;45672;51.612;5.536;2023-09-30T10:59:00;102486.34;;;21.88;61.39
59787;BME280;45672;51.612;5.536;2023-09-30T11:01:32;102496.25;;;21.65;61.68
59787;BME280;45672;51.612;5.536;2023-09-30T11:04:01;102486.38;;;21.58;62.09
59787;BME280;45672;51.612;5.536;2023-09-30T11:06:30;102488.91;;;21.59;61.52
59787;BME280;45672;51.612;5.536;2023-09-30T11:08:57;102491.38;;;21.76;62.97
59787;BME280;45672;51.612;5.536;2023-09-30T11:11:42;102483.44;;;21.89;62.25
59787;BME280;45672;51.612;5.536;2023-09-30T11:14:25;102493.84;;;21.71;60.67
59787;BME280;45672;51.612;5.536;2023-09-30T11:16:52;102493.25;;;21.45;61.52
59787;BME280;45672;51.612;5.536;2023-09-30T11:19:19;102495.41;;;21.35;63.10
59787;BME280;45672;51.612;5.536;2023-09-30T11:21:54;102489.53;;;21.46;62.76
59787;BME280;45672;51.612;5.536;2023-09-30T11:24:20;102488.03;;;21.44;61.00
59787;BME280;45672;51.612;5.536;2023-09-30T11:26:46;102489.63;;;21.38;59.95
59787;BME280;45672;51.612;5.536;2023-09-30T11:29:13;102488.22;;;21.27;57.94
59787;BME280;45672;51.612;5.536;2023-09-30T11:31:41;102485.53;;;21.42;59.70
59787;BME280;45672;51.612;5.536;2023-09-30T11:34:08;102490.94;;;21.57;59.26
59787;BME280;45672;51.612;5.536;2023-09-30T11:36:50;102488.56;;;21.84;59.87
59787;BME280;45672;51.612;5.536;2023-09-30T11:41:51;102460.00;;;22.03;58.16
59787;BME280;45672;51.612;5.536;2023-09-30T11:44:17;102470.03;;;22.24;57.47
59787;BME280;45672;51.612;5.536;2023-09-30T11:49:33;102458.63;;;22.29;56.92
59787;BME280;45672;51.612;5.536;2023-09-30T11:52:08;102445.59;;;22.39;56.80
59787;BME280;45672;51.612;5.536;2023-09-30T11:54:37;102454.88;;;22.51;53.87
59787;BME280;45672;51.612;5.536;2023-09-30T11:57:04;102458.75;;;22.42;52.78
59787;BME280;45672;51.612;5.536;2023-09-30T11:59:31;102463.19;;;22.28;53.73
59787;BME280;45672;51.612;5.536;2023-09-30T12:01:57;102460.47;;;22.07;54.18
59787;BME280;45672;51.612;5.536;2023-09-30T12:04:24;102474.59;;;22.02;54.09
59787;BME280;45672;51.612;5.536;2023-09-30T12:06:49;102478.03;;;22.11;54.59
59787;BME280;45672;51.612;5.536;2023-09-30T12:09:15;102469.59;;;22.20;53.79
59787;BME280;45672;51.612;5.536;2023-09-30T12:11:42;102467.78;;;22.28;51.31
59787;BME280;45672;51.612;5.536;2023-09-30T12:14:11;102456.97;;;22.13;51.88
59787;BME280;45672;51.612;5.536;2023-09-30T12:16:38;102469.06;;;22.10;50.47
59787;BME280;45672;51.612;5.536;2023-09-30T12:19:03;102470.03;;;22.24;51.91
59787;BME280;45672;51.612;5.536;2023-09-30T12:21:30;102476.56;;;22.30;52.35
59787;BME280;45672;51.612;5.536;2023-09-30T12:23:57;102458.03;;;22.12;50.85
59787;BME280;45672;51.612;5.536;2023-09-30T12:26:22;102450.09;;;22.10;50.36
59787;BME280;45672;51.612;5.536;2023-09-30T12:28:47;102452.81;;;22.10;49.58
59787;BME280;45672;51.612;5.536;2023-09-30T12:31:13;102434.84;;;21.88;49.58
59787;BME280;45672;51.612;5.536;2023-09-30T12:33:39;102435.59;;;21.81;51.49
59787;BME280;45672;51.612;5.536;2023-09-30T12:36:05;102425.63;;;21.67;51.26
59787;BME280;45672;51.612;5.536;2023-09-30T12:38:30;102419.53;;;21.80;49.88
59787;BME280;45672;51.612;5.536;2023-09-30T12:40:55;102415.13;;;21.79;48.15
59787;BME280;45672;51.612;5.536;2023-09-30T12:43:21;102417.41;;;21.75;48.20
59787;BME280;45672;51.612;5.536;2023-09-30T12:45:47;102424.34;;;21.63;49.16
59787;BME280;45672;51.612;5.536;2023-09-30T12:48:15;102421.25;;;21.66;49.78
59787;BME280;45672;51.612;5.536;2023-09-30T12:50:41;102416.50;;;21.68;47.63
59787;BME280;45672;51.612;5.536;2023-09-30T12:53:06;102420.03;;;21.68;48.54
59787;BME280;45672;51.612;5.536;2023-09-30T12:55:32;102422.34;;;21.72;50.21
59787;BME280;45672;51.612;5.536;2023-09-30T12:57:57;102422.47;;;21.48;49.15
59787;BME280;45672;51.612;5.536;2023-09-30T13:00:23;102414.44;;;21.40;50.68
59787;BME280;45672;51.612;5.536;2023-09-30T13:02:50;102399.41;;;21.38;49.71